Lynn Lake, Canada
Current Conditions -  °F | °C
As of 1:33 PM on Saturday 20 Dec 2014 (Local Time) from CYYL Reporting Station
Haze Haze  
Wind Chill:   Ceiling: 300
Heat Index: 16°   Visibility: 5mi
Dew Point: 14°   Wind: 8mph
Humidity: 93%   Direction: 170°S
Pressure: 29.8"   Gusts: NA
Location:  56.85°N, 101.05°W
Report Text: CYYL 201933Z AUTO 17007KT 5SM BR OVC003 M09/M10 A2980 RMK SLP123
Loading
Personal Weather Stations






























Interactive Weather Map New forecast layout! Learn more

10-Day Weather Forecast

Advertisements
Track Severe Weather on mobile